sensor_id;sensor_type;location;lat;lon;timestamp;P1;durP1;ratioP1;P2;durP2;ratioP2
15218;SDS011;15623;53.986;11.676;2023-05-15T00:04:49;6.73;;;5.90;;
15218;SDS011;15623;53.986;11.676;2023-05-15T00:07:19;5.90;;;5.47;;
15218;SDS011;15623;53.986;11.676;2023-05-15T00:09:59;5.55;;;5.15;;
15218;SDS011;15623;53.986;11.676;2023-05-15T00:12:34;5.70;;;5.30;;
15218;SDS011;15623;53.986;11.676;2023-05-15T00:15:04;10.05;;;5.65;;
15218;SDS011;15623;53.986;11.676;2023-05-15T00:17:33;6.10;;;5.50;;
15218;SDS011;15623;53.986;11.676;2023-05-15T00:20:02;7.25;;;5.70;;
15218;SDS011;15623;53.986;11.676;2023-05-15T00:22:38;14.33;;;6.17;;
15218;SDS011;15623;53.986;11.676;2023-05-15T00:25:08;5.80;;;5.45;;
15218;SDS011;15623;53.986;11.676;2023-05-15T00:27:37;7.00;;;6.40;;
15218;SDS011;15623;53.986;11.676;2023-05-15T00:30:06;6.78;;;6.25;;
15218;SDS011;15623;53.986;11.676;2023-05-15T00:32:36;6.70;;;6.10;;
15218;SDS011;15623;53.986;11.676;2023-05-15T00:35:04;7.25;;;5.82;;
15218;SDS011;15623;53.986;11.676;2023-05-15T00:37:34;6.33;;;5.83;;
15218;SDS011;15623;53.986;11.676;2023-05-15T00:40:06;6.53;;;5.67;;
15218;SDS011;15623;53.986;11.676;2023-05-15T00:42:42;5.70;;;5.20;;
15218;SDS011;15623;53.986;11.676;2023-05-15T00:47:50;5.90;;;5.33;;
15218;SDS011;15623;53.986;11.676;2023-05-15T00:50:25;5.40;;;5.00;;
15218;SDS011;15623;53.986;11.676;2023-05-15T00:55:29;5.80;;;5.40;;
15218;SDS011;15623;53.986;11.676;2023-05-15T00:57:58;5.78;;;5.45;;
15218;SDS011;15623;53.986;11.676;2023-05-15T01:00:27;8.37;;;6.07;;
15218;SDS011;15623;53.986;11.676;2023-05-15T01:02:57;6.17;;;5.63;;
15218;SDS011;15623;53.986;11.676;2023-05-15T01:05:26;6.60;;;5.97;;
15218;SDS011;15623;53.986;11.676;2023-05-15T01:10:36;6.93;;;6.35;;
15218;SDS011;15623;53.986;11.676;2023-05-15T01:13:03;6.40;;;5.90;;
15218;SDS011;15623;53.986;11.676;2023-05-15T01:15:42;5.87;;;5.27;;
15218;SDS011;15623;53.986;11.676;2023-05-15T01:18:18;6.05;;;5.47;;
15218;SDS011;15623;53.986;11.676;2023-05-15T01:20:51;5.60;;;5.20;;
15218;SDS011;15623;53.986;11.676;2023-05-15T01:23:27;6.47;;;5.87;;
15218;SDS011;15623;53.986;11.676;2023-05-15T01:28:47;6.13;;;5.60;;
15218;SDS011;15623;53.986;11.676;2023-05-15T01:31:31;6.82;;;6.18;;
15218;SDS011;15623;53.986;11.676;2023-05-15T01:34:01;7.00;;;6.30;;
15218;SDS011;15623;53.986;11.676;2023-05-15T01:36:32;6.95;;;6.35;;
15218;SDS011;15623;53.986;11.676;2023-05-15T01:39:11;6.80;;;6.30;;
15218;SDS011;15623;53.986;11.676;2023-05-15T01:41:40;6.60;;;6.00;;
15218;SDS011;15623;53.986;11.676;2023-05-15T01:44:27;6.33;;;5.93;;
15218;SDS011;15623;53.986;11.676;2023-05-15T01:46:56;6.50;;;5.93;;
15218;SDS011;15623;53.986;11.676;2023-05-15T01:52:01;7.00;;;6.50;;
15218;SDS011;15623;53.986;11.676;2023-05-15T01:54:29;6.90;;;6.40;;
15218;SDS011;15623;53.986;11.676;2023-05-15T01:56:58;7.30;;;6.80;;
15218;SDS011;15623;53.986;11.676;2023-05-15T01:59:40;7.53;;;6.93;;
15218;SDS011;15623;53.986;11.676;2023-05-15T02:02:09;8.10;;;7.33;;
15218;SDS011;15623;53.986;11.676;2023-05-15T02:04:37;7.80;;;7.10;;
15218;SDS011;15623;53.986;11.676;2023-05-15T02:09:44;8.97;;;8.07;;
15218;SDS011;15623;53.986;11.676;2023-05-15T02:12:16;8.70;;;8.10;;
15218;SDS011;15623;53.986;11.676;2023-05-15T02:15:01;8.67;;;8.17;;
15218;SDS011;15623;53.986;11.676;2023-05-15T02:17:29;8.53;;;7.67;;
15218;SDS011;15623;53.986;11.676;2023-05-15T02:20:13;9.30;;;8.60;;
15218;SDS011;15623;53.986;11.676;2023-05-15T02:28:02;8.20;;;7.60;;
15218;SDS011;15623;53.986;11.676;2023-05-15T02:30:34;8.30;;;7.70;;
15218;SDS011;15623;53.986;11.676;2023-05-15T02:33:13;9.33;;;8.00;;
15218;SDS011;15623;53.986;11.676;2023-05-15T02:35:50;8.10;;;7.60;;
15218;SDS011;15623;53.986;11.676;2023-05-15T02:38:19;8.53;;;7.97;;
15218;SDS011;15623;53.986;11.676;2023-05-15T02:43:29;9.03;;;8.10;;
15218;SDS011;15623;53.986;11.676;2023-05-15T02:45:58;8.70;;;8.10;;
15218;SDS011;15623;53.986;11.676;2023-05-15T02:48:32;7.97;;;7.45;;
15218;SDS011;15623;53.986;11.676;2023-05-15T02:51:14;8.80;;;8.00;;
15218;SDS011;15623;53.986;11.676;2023-05-15T02:56:14;8.68;;;7.90;;
15218;SDS011;15623;53.986;11.676;2023-05-15T02:58:43;8.47;;;7.73;;
15218;SDS011;15623;53.986;11.676;2023-05-15T03:01:12;8.30;;;7.73;;
15218;SDS011;15623;53.986;11.676;2023-05-15T03:03:42;8.82;;;8.07;;
15218;SDS011;15623;53.986;11.676;2023-05-15T03:06:26;10.30;;;7.90;;
15218;SDS011;15623;53.986;11.676;2023-05-15T03:08:55;8.80;;;8.00;;
15218;SDS011;15623;53.986;11.676;2023-05-15T03:11:24;8.33;;;7.73;;
15218;SDS011;15623;53.986;11.676;2023-05-15T03:13:54;8.67;;;7.97;;
15218;SDS011;15623;53.986;11.676;2023-05-15T03:16:27;8.83;;;8.20;;
15218;SDS011;15623;53.986;11.676;2023-05-15T03:19:04;8.97;;;8.23;;
15218;SDS011;15623;53.986;11.676;2023-05-15T03:21:42;8.70;;;7.97;;
15218;SDS011;15623;53.986;11.676;2023-05-15T03:24:11;9.30;;;8.60;;
15218;SDS011;15623;53.986;11.676;2023-05-15T03:26:38;9.07;;;8.37;;
15218;SDS011;15623;53.986;11.676;2023-05-15T03:29:21;9.03;;;8.43;;
15218;SDS011;15623;53.986;11.676;2023-05-15T03:31:50;9.50;;;8.63;;
15218;SDS011;15623;53.986;11.676;2023-05-15T03:37:24;10.27;;;9.37;;
15218;SDS011;15623;53.986;11.676;2023-05-15T03:39:51;13.63;;;9.40;;
15218;SDS011;15623;53.986;11.676;2023-05-15T03:42:20;9.97;;;9.00;;
15218;SDS011;15623;53.986;11.676;2023-05-15T03:44:49;11.93;;;10.77;;
15218;SDS011;15623;53.986;11.676;2023-05-15T03:49:52;9.77;;;8.90;;
15218;SDS011;15623;53.986;11.676;2023-05-15T03:52:20;9.30;;;8.50;;
15218;SDS011;15623;53.986;11.676;2023-05-15T03:55:03;10.47;;;9.53;;
15218;SDS011;15623;53.986;11.676;2023-05-15T03:57:37;9.40;;;8.70;;
15218;SDS011;15623;53.986;11.676;2023-05-15T04:03:06;10.20;;;9.30;;
15218;SDS011;15623;53.986;11.676;2023-05-15T04:05:47;9.40;;;8.70;;
15218;SDS011;15623;53.986;11.676;2023-05-15T04:08:20;8.97;;;8.37;;
15218;SDS011;15623;53.986;11.676;2023-05-15T04:10:47;9.00;;;8.40;;
15218;SDS011;15623;53.986;11.676;2023-05-15T04:13:18;9.87;;;9.10;;
15218;SDS011;15623;53.986;11.676;2023-05-15T04:15:46;8.80;;;8.00;;
15218;SDS011;15623;53.986;11.676;2023-05-15T04:18:14;9.43;;;8.53;;
15218;SDS011;15623;53.986;11.676;2023-05-15T04:20:58;8.47;;;7.83;;
15218;SDS011;15623;53.986;11.676;2023-05-15T04:23:32;8.60;;;8.00;;
15218;SDS011;15623;53.986;11.676;2023-05-15T04:26:00;8.65;;;8.05;;
15218;SDS011;15623;53.986;11.676;2023-05-15T04:28:35;7.80;;;7.20;;
15218;SDS011;15623;53.986;11.676;2023-05-15T04:31:02;7.72;;;7.22;;
15218;SDS011;15623;53.986;11.676;2023-05-15T04:33:32;8.18;;;7.55;;
15218;SDS011;15623;53.986;11.676;2023-05-15T04:36:08;8.30;;;7.50;;
15218;SDS011;15623;53.986;11.676;2023-05-15T04:38:43;8.80;;;8.13;;
15218;SDS011;15623;53.986;11.676;2023-05-15T04:41:12;9.98;;;9.00;;
15218;SDS011;15623;53.986;11.676;2023-05-15T04:46:36;11.45;;;10.45;;
15218;SDS011;15623;53.986;11.676;2023-05-15T04:49:17;12.02;;;10.93;;
15218;SDS011;15623;53.986;11.676;2023-05-15T04:51:50;12.23;;;11.38;;
15218;SDS011;15623;53.986;11.676;2023-05-15T04:54:18;12.57;;;11.48;;
15218;SDS011;15623;53.986;11.676;2023-05-15T04:56:49;12.52;;;11.57;;
15218;SDS011;15623;53.986;11.676;2023-05-15T04:59:17;11.07;;;10.20;;
15218;SDS011;15623;53.986;11.676;2023-05-15T05:01:44;10.98;;;9.98;;
15218;SDS011;15623;53.986;11.676;2023-05-15T05:04:14;10.02;;;9.23;;
15218;SDS011;15623;53.986;11.676;2023-05-15T05:06:43;10.27;;;9.57;;
15218;SDS011;15623;53.986;11.676;2023-05-15T05:09:22;10.75;;;10.05;;
15218;SDS011;15623;53.986;11.676;2023-05-15T05:11:49;12.60;;;11.70;;
15218;SDS011;15623;53.986;11.676;2023-05-15T05:14:18;13.70;;;12.57;;
15218;SDS011;15623;53.986;11.676;2023-05-15T05:16:45;14.77;;;13.35;;
15218;SDS011;15623;53.986;11.676;2023-05-15T05:19:15;16.08;;;14.75;;
15218;SDS011;15623;53.986;11.676;2023-05-15T05:21:42;16.35;;;15.02;;
15218;SDS011;15623;53.986;11.676;2023-05-15T05:24:12;16.10;;;14.80;;
15218;SDS011;15623;53.986;11.676;2023-05-15T05:26:43;16.92;;;15.38;;
15218;SDS011;15623;53.986;11.676;2023-05-15T05:29:17;16.40;;;14.82;;
15218;SDS011;15623;53.986;11.676;2023-05-15T05:31:45;15.75;;;14.27;;
15218;SDS011;15623;53.986;11.676;2023-05-15T05:34:14;14.82;;;13.82;;
15218;SDS011;15623;53.986;11.676;2023-05-15T05:36:42;14.15;;;12.95;;
15218;SDS011;15623;53.986;11.676;2023-05-15T05:39:12;14.52;;;13.32;;
15218;SDS011;15623;53.986;11.676;2023-05-15T05:41:42;21.05;;;14.10;;
15218;SDS011;15623;53.986;11.676;2023-05-15T05:44:17;21.85;;;13.63;;
15218;SDS011;15623;53.986;11.676;2023-05-15T05:46:45;14.75;;;13.57;;
15218;SDS011;15623;53.986;11.676;2023-05-15T05:49:12;13.43;;;12.25;;
15218;SDS011;15623;53.986;11.676;2023-05-15T05:51:40;15.02;;;12.70;;
15218;SDS011;15623;53.986;11.676;2023-05-15T05:54:08;13.25;;;12.15;;
15218;SDS011;15623;53.986;11.676;2023-05-15T05:56:45;15.30;;;11.70;;
15218;SDS011;15623;53.986;11.676;2023-05-15T06:04:46;10.88;;;10.10;;
15218;SDS011;15623;53.986;11.676;2023-05-15T06:07:21;10.13;;;9.30;;
15218;SDS011;15623;53.986;11.676;2023-05-15T06:09:57;10.65;;;9.68;;
15218;SDS011;15623;53.986;11.676;2023-05-15T06:12:38;10.55;;;9.75;;
15218;SDS011;15623;53.986;11.676;2023-05-15T06:17:42;9.93;;;9.25;;
15218;SDS011;15623;53.986;11.676;2023-05-15T06:20:09;10.18;;;9.38;;
15218;SDS011;15623;53.986;11.676;2023-05-15T06:22:38;11.98;;;9.45;;
15218;SDS011;15623;53.986;11.676;2023-05-15T06:25:07;11.07;;;9.98;;
15218;SDS011;15623;53.986;11.676;2023-05-15T06:27:39;9.60;;;8.75;;
15218;SDS011;15623;53.986;11.676;2023-05-15T06:30:08;11.00;;;9.93;;
15218;SDS011;15623;53.986;11.676;2023-05-15T06:32:36;10.73;;;9.63;;
15218;SDS011;15623;53.986;11.676;2023-05-15T06:37:38;10.40;;;8.43;;
15218;SDS011;15623;53.986;11.676;2023-05-15T06:40:07;11.15;;;9.75;;
15218;SDS011;15623;53.986;11.676;2023-05-15T06:42:46;10.68;;;9.65;;
15218;SDS011;15623;53.986;11.676;2023-05-15T06:45:15;10.80;;;9.80;;
15218;SDS011;15623;53.986;11.676;2023-05-15T06:47:43;11.60;;;10.65;;
15218;SDS011;15623;53.986;11.676;2023-05-15T06:50:10;11.63;;;10.45;;
15218;SDS011;15623;53.986;11.676;2023-05-15T06:52:52;13.05;;;10.77;;
15218;SDS011;15623;53.986;11.676;2023-05-15T06:55:19;11.40;;;10.38;;
15218;SDS011;15623;53.986;11.676;2023-05-15T07:00:34;13.18;;;11.90;;
15218;SDS011;15623;53.986;11.676;2023-05-15T07:05:49;11.95;;;10.77;;
15218;SDS011;15623;53.986;11.676;2023-05-15T07:08:16;12.45;;;11.13;;
15218;SDS011;15623;53.986;11.676;2023-05-15T07:10:45;12.07;;;10.88;;
15218;SDS011;15623;53.986;11.676;2023-05-15T07:13:12;20.38;;;11.93;;
15218;SDS011;15623;53.986;11.676;2023-05-15T07:15:49;12.30;;;11.07;;
15218;SDS011;15623;53.986;11.676;2023-05-15T07:18:35;14.45;;;10.77;;
15218;SDS011;15623;53.986;11.676;2023-05-15T07:21:03;10.75;;;9.82;;
15218;SDS011;15623;53.986;11.676;2023-05-15T07:23:37;11.70;;;10.63;;
15218;SDS011;15623;53.986;11.676;2023-05-15T07:26:06;11.02;;;9.98;;
15218;SDS011;15623;53.986;11.676;2023-05-15T07:28:35;11.40;;;10.38;;
15218;SDS011;15623;53.986;11.676;2023-05-15T07:31:12;11.30;;;10.15;;
15218;SDS011;15623;53.986;11.676;2023-05-15T07:33:46;16.60;;;10.77;;
15218;SDS011;15623;53.986;11.676;2023-05-15T07:36:14;11.40;;;10.30;;
15218;SDS011;15623;53.986;11.676;2023-05-15T07:38:43;11.07;;;10.02;;
15218;SDS011;15623;53.986;11.676;2023-05-15T07:41:18;10.93;;;9.90;;
15218;SDS011;15623;53.986;11.676;2023-05-15T07:43:52;10.27;;;9.18;;
15218;SDS011;15623;53.986;11.676;2023-05-15T07:46:28;10.63;;;9.45;;
15218;SDS011;15623;53.986;11.676;2023-05-15T07:48:58;9.63;;;8.40;;
15218;SDS011;15623;53.986;11.676;2023-05-15T07:51:27;8.68;;;7.88;;
15218;SDS011;15623;53.986;11.676;2023-05-15T07:53:54;8.23;;;7.47;;
15218;SDS011;15623;53.986;11.676;2023-05-15T07:56:31;8.30;;;7.50;;
15218;SDS011;15623;53.986;11.676;2023-05-15T07:59:01;8.20;;;7.20;;
15218;SDS011;15623;53.986;11.676;2023-05-15T08:01:30;6.90;;;6.22;;
15218;SDS011;15623;53.986;11.676;2023-05-15T08:03:58;8.20;;;6.45;;
15218;SDS011;15623;53.986;11.676;2023-05-15T08:06:27;7.25;;;6.55;;
15218;SDS011;15623;53.986;11.676;2023-05-15T08:08:54;6.45;;;5.90;;
15218;SDS011;15623;53.986;11.676;2023-05-15T08:11:23;7.05;;;5.65;;
15218;SDS011;15623;53.986;11.676;2023-05-15T08:14:01;8.65;;;6.20;;
15218;SDS011;15623;53.986;11.676;2023-05-15T08:16:29;7.25;;;5.63;;
15218;SDS011;15623;53.986;11.676;2023-05-15T08:19:03;6.38;;;5.45;;
15218;SDS011;15623;53.986;11.676;2023-05-15T08:21:34;6.63;;;5.95;;
15218;SDS011;15623;53.986;11.676;2023-05-15T08:24:14;6.03;;;5.50;;
15218;SDS011;15623;53.986;11.676;2023-05-15T08:26:42;5.80;;;5.20;;
15218;SDS011;15623;53.986;11.676;2023-05-15T08:29:10;6.05;;;5.55;;
15218;SDS011;15623;53.986;11.676;2023-05-15T08:31:42;5.97;;;5.07;;
15218;SDS011;15623;53.986;11.676;2023-05-15T08:34:09;5.10;;;4.70;;
15218;SDS011;15623;53.986;11.676;2023-05-15T08:36:43;5.10;;;4.57;;
15218;SDS011;15623;53.986;11.676;2023-05-15T08:39:23;5.45;;;4.95;;
15218;SDS011;15623;53.986;11.676;2023-05-15T08:42:01;5.20;;;4.68;;
15218;SDS011;15623;53.986;11.676;2023-05-15T08:44:36;4.85;;;4.20;;
15218;SDS011;15623;53.986;11.676;2023-05-15T08:47:10;5.13;;;4.63;;
15218;SDS011;15623;53.986;11.676;2023-05-15T08:52:27;5.75;;;5.25;;
15218;SDS011;15623;53.986;11.676;2023-05-15T08:55:03;5.72;;;5.32;;
15218;SDS011;15623;53.986;11.676;2023-05-15T09:00:03;9.50;;;5.10;;
15218;SDS011;15623;53.986;11.676;2023-05-15T09:02:38;5.10;;;4.70;;
15218;SDS011;15623;53.986;11.676;2023-05-15T09:05:18;5.60;;;5.20;;
15218;SDS011;15623;53.986;11.676;2023-05-15T09:07:46;5.93;;;5.45;;
15218;SDS011;15623;53.986;11.676;2023-05-15T09:10:15;5.50;;;5.10;;
15218;SDS011;15623;53.986;11.676;2023-05-15T09:15:14;5.22;;;4.80;;
15218;SDS011;15623;53.986;11.676;2023-05-15T09:17:48;5.18;;;4.78;;
15218;SDS011;15623;53.986;11.676;2023-05-15T09:20:27;5.90;;;5.30;;
15218;SDS011;15623;53.986;11.676;2023-05-15T09:25:45;5.40;;;4.90;;
15218;SDS011;15623;53.986;11.676;2023-05-15T09:28:27;6.53;;;5.63;;
15218;SDS011;15623;53.986;11.676;2023-05-15T09:30:59;5.85;;;5.45;;
15218;SDS011;15623;53.986;11.676;2023-05-15T09:33:29;6.72;;;5.55;;
15218;SDS011;15623;53.986;11.676;2023-05-15T09:35:58;8.30;;;5.32;;
15218;SDS011;15623;53.986;11.676;2023-05-15T09:38:34;10.32;;;5.43;;
15218;SDS011;15623;53.986;11.676;2023-05-15T09:41:02;6.03;;;5.43;;
15218;SDS011;15623;53.986;11.676;2023-05-15T09:43:32;5.95;;;5.40;;
15218;SDS011;15623;53.986;11.676;2023-05-15T09:46:10;7.60;;;5.35;;
15218;SDS011;15623;53.986;11.676;2023-05-15T09:48:45;8.68;;;5.40;;
15218;SDS011;15623;53.986;11.676;2023-05-15T09:51:16;6.57;;;5.95;;
15218;SDS011;15623;53.986;11.676;2023-05-15T09:53:52;7.47;;;5.72;;
15218;SDS011;15623;53.986;11.676;2023-05-15T09:59:08;7.25;;;5.63;;
15218;SDS011;15623;53.986;11.676;2023-05-15T10:01:43;5.90;;;5.40;;
15218;SDS011;15623;53.986;11.676;2023-05-15T10:04:23;6.85;;;5.40;;
15218;SDS011;15623;53.986;11.676;2023-05-15T10:06:55;6.40;;;5.80;;
15218;SDS011;15623;53.986;11.676;2023-05-15T10:09:33;14.23;;;7.30;;
15218;SDS011;15623;53.986;11.676;2023-05-15T10:12:06;7.35;;;5.55;;
15218;SDS011;15623;53.986;11.676;2023-05-15T10:14:34;6.28;;;5.40;;
15218;SDS011;15623;53.986;11.676;2023-05-15T10:20:06;6.78;;;5.30;;
15218;SDS011;15623;53.986;11.676;2023-05-15T10:22:35;6.25;;;5.75;;
15218;SDS011;15623;53.986;11.676;2023-05-15T10:25:12;6.47;;;5.97;;
15218;SDS011;15623;53.986;11.676;2023-05-15T10:27:42;6.93;;;5.75;;
15218;SDS011;15623;53.986;11.676;2023-05-15T10:30:16;8.10;;;6.07;;
15218;SDS011;15623;53.986;11.676;2023-05-15T10:32:50;5.70;;;5.30;;
15218;SDS011;15623;53.986;11.676;2023-05-15T10:35:23;5.80;;;5.28;;
15218;SDS011;15623;53.986;11.676;2023-05-15T10:37:58;5.78;;;5.25;;
15218;SDS011;15623;53.986;11.676;2023-05-15T10:40:26;6.10;;;5.60;;
15218;SDS011;15623;53.986;11.676;2023-05-15T10:42:55;7.45;;;5.90;;
15218;SDS011;15623;53.986;11.676;2023-05-15T10:45:27;6.10;;;5.50;;
15218;SDS011;15623;53.986;11.676;2023-05-15T10:47:56;6.22;;;5.63;;
15218;SDS011;15623;53.986;11.676;2023-05-15T10:50:29;8.68;;;5.72;;
15218;SDS011;15623;53.986;11.676;2023-05-15T10:55:43;5.78;;;5.22;;
15218;SDS011;15623;53.986;11.676;2023-05-15T10:58:24;7.18;;;5.93;;
15218;SDS011;15623;53.986;11.676;2023-05-15T11:00:54;7.55;;;5.63;;
15218;SDS011;15623;53.986;11.676;2023-05-15T11:03:39;6.50;;;5.63;;
15218;SDS011;15623;53.986;11.676;2023-05-15T11:06:18;5.40;;;5.03;;
15218;SDS011;15623;53.986;11.676;2023-05-15T11:14:22;6.05;;;5.40;;
15218;SDS011;15623;53.986;11.676;2023-05-15T11:17:00;5.60;;;5.10;;
15218;SDS011;15623;53.986;11.676;2023-05-15T11:19:39;6.30;;;5.10;;
15218;SDS011;15623;53.986;11.676;2023-05-15T11:22:27;5.40;;;5.00;;
15218;SDS011;15623;53.986;11.676;2023-05-15T11:24:57;5.60;;;5.10;;
15218;SDS011;15623;53.986;11.676;2023-05-15T11:27:27;5.90;;;5.40;;
15218;SDS011;15623;53.986;11.676;2023-05-15T11:35:44;6.03;;;5.47;;
15218;SDS011;15623;53.986;11.676;2023-05-15T11:38:23;5.72;;;5.25;;
15218;SDS011;15623;53.986;11.676;2023-05-15T11:40:53;5.65;;;5.15;;
15218;SDS011;15623;53.986;11.676;2023-05-15T11:43:24;5.30;;;4.90;;
15218;SDS011;15623;53.986;11.676;2023-05-15T11:46:10;5.53;;;4.95;;
15218;SDS011;15623;53.986;11.676;2023-05-15T11:48:39;7.78;;;4.70;;
15218;SDS011;15623;53.986;11.676;2023-05-15T11:54:10;6.07;;;5.10;;
15218;SDS011;15623;53.986;11.676;2023-05-15T11:59:15;10.60;;;4.70;;
15218;SDS011;15623;53.986;11.676;2023-05-15T12:01:44;7.65;;;5.10;;
15218;SDS011;15623;53.986;11.676;2023-05-15T12:04:14;5.40;;;4.70;;
15218;SDS011;15623;53.986;11.676;2023-05-15T12:06:50;6.25;;;4.57;;
15218;SDS011;15623;53.986;11.676;2023-05-15T12:09:33;5.93;;;4.40;;
15218;SDS011;15623;53.986;11.676;2023-05-15T12:12:01;4.97;;;4.40;;
15218;SDS011;15623;53.986;11.676;2023-05-15T12:14:37;4.60;;;4.28;;
15218;SDS011;15623;53.986;11.676;2023-05-15T12:17:07;6.10;;;4.95;;
15218;SDS011;15623;53.986;11.676;2023-05-15T12:19:53;5.00;;;4.50;;
15218;SDS011;15623;53.986;11.676;2023-05-15T12:22:22;5.50;;;4.78;;
15218;SDS011;15623;53.986;11.676;2023-05-15T12:24:55;5.45;;;4.93;;
15218;SDS011;15623;53.986;11.676;2023-05-15T12:27:24;5.38;;;4.90;;
15218;SDS011;15623;53.986;11.676;2023-05-15T12:29:53;6.15;;;5.65;;
15218;SDS011;15623;53.986;11.676;2023-05-15T12:32:22;6.05;;;5.47;;
15218;SDS011;15623;53.986;11.676;2023-05-15T12:34:50;8.82;;;5.47;;
15218;SDS011;15623;53.986;11.676;2023-05-15T12:39:52;5.43;;;4.97;;
15218;SDS011;15623;53.986;11.676;2023-05-15T12:42:39;5.68;;;5.28;;
15218;SDS011;15623;53.986;11.676;2023-05-15T12:45:11;7.82;;;5.70;;
15218;SDS011;15623;53.986;11.676;2023-05-15T12:47:41;5.57;;;5.05;;
15218;SDS011;15623;53.986;11.676;2023-05-15T12:50:17;6.10;;;5.45;;
15218;SDS011;15623;53.986;11.676;2023-05-15T12:52:51;8.15;;;5.60;;
15218;SDS011;15623;53.986;11.676;2023-05-15T12:55:25;6.82;;;6.15;;
15218;SDS011;15623;53.986;11.676;2023-05-15T12:57:57;6.18;;;5.60;;
15218;SDS011;15623;53.986;11.676;2023-05-15T13:00:27;8.25;;;5.97;;
15218;SDS011;15623;53.986;11.676;2023-05-15T13:02:58;10.30;;;6.13;;
15218;SDS011;15623;53.986;11.676;2023-05-15T13:07:58;8.60;;;5.95;;
15218;SDS011;15623;53.986;11.676;2023-05-15T13:10:30;8.15;;;6.10;;
15218;SDS011;15623;53.986;11.676;2023-05-15T13:12:59;6.82;;;6.40;;
15218;SDS011;15623;53.986;11.676;2023-05-15T13:15:31;6.20;;;5.60;;
15218;SDS011;15623;53.986;11.676;2023-05-15T13:18:00;8.18;;;6.10;;
15218;SDS011;15623;53.986;11.676;2023-05-15T13:20:30;6.35;;;5.85;;
15218;SDS011;15623;53.986;11.676;2023-05-15T13:23:03;6.53;;;5.70;;
15218;SDS011;15623;53.986;11.676;2023-05-15T13:25:34;6.90;;;5.68;;
15218;SDS011;15623;53.986;11.676;2023-05-15T13:28:02;8.88;;;6.03;;
15218;SDS011;15623;53.986;11.676;2023-05-15T13:30:32;6.78;;;6.22;;
15218;SDS011;15623;53.986;11.676;2023-05-15T13:33:01;6.97;;;6.47;;
15218;SDS011;15623;53.986;11.676;2023-05-15T13:35:45;6.43;;;5.93;;
15218;SDS011;15623;53.986;11.676;2023-05-15T13:38:24;7.55;;;6.20;;
15218;SDS011;15623;53.986;11.676;2023-05-15T13:41:01;6.00;;;5.50;;
15218;SDS011;15623;53.986;11.676;2023-05-15T13:43:38;6.22;;;5.70;;
15218;SDS011;15623;53.986;11.676;2023-05-15T13:46:07;7.72;;;6.03;;
15218;SDS011;15623;53.986;11.676;2023-05-15T13:48:36;6.03;;;5.53;;
15218;SDS011;15623;53.986;11.676;2023-05-15T13:51:04;7.00;;;5.90;;
15218;SDS011;15623;53.986;11.676;2023-05-15T13:53:34;6.20;;;5.60;;
15218;SDS011;15623;53.986;11.676;2023-05-15T13:56:12;7.72;;;6.10;;
15218;SDS011;15623;53.986;11.676;2023-05-15T13:58:52;7.80;;;5.60;;
15218;SDS011;15623;53.986;11.676;2023-05-15T14:01:30;7.30;;;5.50;;
15218;SDS011;15623;53.986;11.676;2023-05-15T14:06:36;6.68;;;5.35;;
15218;SDS011;15623;53.986;11.676;2023-05-15T14:09:07;6.55;;;5.55;;
15218;SDS011;15623;53.986;11.676;2023-05-15T14:11:40;6.65;;;6.05;;
15218;SDS011;15623;53.986;11.676;2023-05-15T14:14:15;8.95;;;6.10;;
15218;SDS011;15623;53.986;11.676;2023-05-15T14:16:43;6.25;;;5.35;;
15218;SDS011;15623;53.986;11.676;2023-05-15T14:19:11;6.30;;;5.80;;
15218;SDS011;15623;53.986;11.676;2023-05-15T14:21:38;6.68;;;6.05;;
15218;SDS011;15623;53.986;11.676;2023-05-15T14:24:15;6.30;;;5.80;;
15218;SDS011;15623;53.986;11.676;2023-05-15T14:27:08;6.15;;;5.65;;
15218;SDS011;15623;53.986;11.676;2023-05-15T14:29:38;7.30;;;5.47;;
15218;SDS011;15623;53.986;11.676;2023-05-15T14:32:06;6.22;;;5.60;;
15218;SDS011;15623;53.986;11.676;2023-05-15T14:34:37;5.90;;;5.50;;
15218;SDS011;15623;53.986;11.676;2023-05-15T14:37:05;6.53;;;5.25;;
15218;SDS011;15623;53.986;11.676;2023-05-15T14:39:33;6.22;;;5.72;;
15218;SDS011;15623;53.986;11.676;2023-05-15T14:42:04;6.85;;;6.15;;
15218;SDS011;15623;53.986;11.676;2023-05-15T14:44:35;6.57;;;5.90;;
15218;SDS011;15623;53.986;11.676;2023-05-15T14:47:07;6.47;;;5.97;;
15218;SDS011;15623;53.986;11.676;2023-05-15T14:49:37;6.28;;;5.45;;
15218;SDS011;15623;53.986;11.676;2023-05-15T14:52:12;6.85;;;5.28;;
15218;SDS011;15623;53.986;11.676;2023-05-15T14:54:47;7.35;;;5.75;;
15218;SDS011;15623;53.986;11.676;2023-05-15T14:57:28;9.82;;;5.72;;
15218;SDS011;15623;53.986;11.676;2023-05-15T15:00:05;6.05;;;5.50;;
15218;SDS011;15623;53.986;11.676;2023-05-15T15:02:40;6.28;;;5.68;;
15218;SDS011;15623;53.986;11.676;2023-05-15T15:05:14;6.03;;;5.50;;
15218;SDS011;15623;53.986;11.676;2023-05-15T15:10:28;7.05;;;6.38;;
15218;SDS011;15623;53.986;11.676;2023-05-15T15:15:29;6.60;;;5.95;;
15218;SDS011;15623;53.986;11.676;2023-05-15T15:20:47;5.95;;;5.20;;
15218;SDS011;15623;53.986;11.676;2023-05-15T15:23:18;8.20;;;6.43;;
15218;SDS011;15623;53.986;11.676;2023-05-15T15:25:52;6.55;;;5.93;;
15218;SDS011;15623;53.986;11.676;2023-05-15T15:33:30;7.03;;;6.32;;
15218;SDS011;15623;53.986;11.676;2023-05-15T15:36:15;6.22;;;5.72;;
15218;SDS011;15623;53.986;11.676;2023-05-15T15:38:52;6.63;;;6.03;;
15218;SDS011;15623;53.986;11.676;2023-05-15T15:41:20;6.15;;;5.75;;
15218;SDS011;15623;53.986;11.676;2023-05-15T15:43:56;6.45;;;5.85;;
15218;SDS011;15623;53.986;11.676;2023-05-15T15:46:24;9.13;;;5.75;;
15218;SDS011;15623;53.986;11.676;2023-05-15T15:48:57;6.25;;;5.75;;
15218;SDS011;15623;53.986;11.676;2023-05-15T15:51:26;6.82;;;5.65;;
15218;SDS011;15623;53.986;11.676;2023-05-15T15:54:08;7.63;;;6.07;;
15218;SDS011;15623;53.986;11.676;2023-05-15T15:56:42;6.45;;;5.70;;
15218;SDS011;15623;53.986;11.676;2023-05-15T15:59:12;6.70;;;6.07;;
15218;SDS011;15623;53.986;11.676;2023-05-15T16:01:41;6.13;;;5.72;;
15218;SDS011;15623;53.986;11.676;2023-05-15T16:04:18;6.00;;;5.53;;
15218;SDS011;15623;53.986;11.676;2023-05-15T16:06:47;6.18;;;5.57;;
15218;SDS011;15623;53.986;11.676;2023-05-15T16:09:28;5.88;;;5.35;;
15218;SDS011;15623;53.986;11.676;2023-05-15T16:14:31;6.63;;;5.93;;
15218;SDS011;15623;53.986;11.676;2023-05-15T16:17:12;5.70;;;5.20;;
15218;SDS011;15623;53.986;11.676;2023-05-15T16:19:54;7.43;;;5.95;;
15218;SDS011;15623;53.986;11.676;2023-05-15T16:22:27;6.93;;;6.32;;
15218;SDS011;15623;53.986;11.676;2023-05-15T16:24:55;6.82;;;6.03;;
15218;SDS011;15623;53.986;11.676;2023-05-15T16:27:23;6.82;;;6.10;;
15218;SDS011;15623;53.986;11.676;2023-05-15T16:29:57;6.93;;;6.30;;
15218;SDS011;15623;53.986;11.676;2023-05-15T16:32:25;7.07;;;6.47;;
15218;SDS011;15623;53.986;11.676;2023-05-15T16:34:58;6.85;;;6.03;;
15218;SDS011;15623;53.986;11.676;2023-05-15T16:40:15;6.03;;;5.63;;
15218;SDS011;15623;53.986;11.676;2023-05-15T16:48:26;6.50;;;5.90;;
15218;SDS011;15623;53.986;11.676;2023-05-15T16:50:55;6.35;;;5.85;;
15218;SDS011;15623;53.986;11.676;2023-05-15T16:56:00;6.78;;;5.60;;
15218;SDS011;15623;53.986;11.676;2023-05-15T17:01:20;6.63;;;6.13;;
15218;SDS011;15623;53.986;11.676;2023-05-15T17:06:41;7.13;;;6.00;;
15218;SDS011;15623;53.986;11.676;2023-05-15T17:09:15;6.57;;;5.97;;
15218;SDS011;15623;53.986;11.676;2023-05-15T17:11:43;7.80;;;6.10;;
15218;SDS011;15623;53.986;11.676;2023-05-15T17:14:19;6.60;;;5.97;;